Time;durP1;ratioP1;P1;durP2;ratioP2;P2;SDS_P1;SDS_P2;PMS_P1;PMS_P2;Temp;Humidity;BMP_temperature;BMP_pressure;BME280_temperature;BME280_humidity;BME280_pressure;Samples;Min_cycle;Max_cycle;Signal;HPM_P1;HPM_P2
2020/12/24 00:00:49;;;;;;;0.50;0.40;;;11.70;74.20;;;11.88;63.53;97112.31;5025335;28;20073;-43
2020/12/24 00:03:16;;;;;;;1.10;0.52;;;11.60;74.10;;;11.86;63.39;97082.34;5025170;28;20061;-43
2020/12/24 00:05:43;;;;;;;1.38;1.20;;;11.60;73.90;;;11.79;62.58;97088.41;5024628;28;20337;-43
2020/12/24 00:08:11;;;;;;;4.30;2.13;;;11.60;73.20;;;11.71;62.64;97100.97;5024980;28;20050;-44
2020/12/24 00:10:39;;;;;;;2.03;1.35;;;11.60;72.80;;;11.66;61.56;97100.72;5025015;28;20041;-44
2020/12/24 00:13:06;;;;;;;3.20;1.98;;;11.60;71.10;;;11.60;62.29;97081.75;5025030;28;20049;-44
2020/12/24 00:15:34;;;;;;;1.70;0.88;;;11.50;71.10;;;11.61;61.64;97095.91;5024469;28;20257;-46
2020/12/24 00:18:17;;;;;;;4.50;1.58;;;11.50;70.40;;;11.48;60.59;97115.19;5025009;28;20048;-43
2020/12/24 00:20:44;;;;;;;3.70;2.17;;;11.50;68.70;;;11.40;59.66;97094.78;5025027;28;20053;-44
2020/12/24 00:23:12;;;;;;;1.08;0.73;;;11.40;66.10;;;11.25;57.32;97128.53;5024814;28;20056;-45
2020/12/24 00:25:39;;;;;;;2.75;0.65;;;11.30;63.50;;;10.88;52.65;97118.66;5024244;28;20045;-44
2020/12/24 00:28:07;;;;;;;1.38;0.80;;;11.20;57.90;;;10.80;53.49;97117.69;5024652;28;20041;-43
2020/12/24 00:30:35;;;;;;;1.48;1.08;;;11.10;59.00;;;10.88;56.03;97116.81;5024806;28;20048;-43
2020/12/24 00:33:03;;;;;;;1.83;1.30;;;11.20;62.20;;;10.80;55.00;97119.53;5024312;28;20056;-44
2020/12/24 00:35:30;;;;;;;0.97;0.73;;;11.10;61.30;;;10.58;57.34;97135.25;5024228;28;20037;-43
2020/12/24 00:37:57;;;;;;;1.57;1.33;;;10.80;64.10;;;10.59;59.13;97133.44;5024570;28;20050;-43
2020/12/24 00:40:25;;;;;;;1.80;1.27;;;10.80;67.40;;;10.55;60.25;97124.16;5024541;28;20050;-48
2020/12/24 00:42:52;;;;;;;1.03;0.93;;;10.70;68.10;;;10.61;60.13;97118.13;5024484;28;20059;-44
2020/12/24 00:45:20;;;;;;;3.33;1.20;;;10.70;68.20;;;10.45;60.81;97103.06;5006353;28;20054;-44
2020/12/24 00:47:48;;;;;;;1.37;0.70;;;10.60;69.40;;;10.37;61.48;97111.91;5024281;28;20342;-45
2020/12/24 00:50:15;;;;;;;1.73;1.40;;;10.50;70.60;;;10.48;61.58;97121.34;5024248;28;20095;-45
2020/12/24 00:52:43;;;;;;;3.33;1.43;;;10.50;71.20;;;10.37;61.90;97205.06;5006650;28;20050;-47
2020/12/24 00:55:11;;;;;;;2.17;0.70;;;10.40;71.30;;;10.22;62.66;97134.88;5023996;28;20072;-46
2020/12/24 00:57:39;;;;;;;1.00;0.40;;;10.20;74.00;;;9.68;62.63;97145.31;5006594;28;20053;-46
2020/12/24 01:00:08;;;;;;;1.27;0.60;;;9.60;73.20;;;9.56;63.24;97136.84;5023413;28;20064;-44
2020/12/24 01:02:35;;;;;;;1.00;0.60;;;9.30;76.70;;;9.45;62.96;97120.22;5023628;28;20053;-44
2020/12/24 01:05:06;;;;;;;0.97;0.43;;;9.30;74.50;;;9.34;63.73;97115.25;5023134;28;20054;-45
2020/12/24 01:07:35;;;;;;;1.90;0.40;;;9.20;75.50;;;9.35;62.71;97102.81;5024084;28;20046;-46
2020/12/24 01:10:09;;;;;;;1.77;0.50;;;9.20;74.30;;;9.36;62.50;97088.50;5023551;28;20064;-49
2020/12/24 01:12:36;;;;;;;1.37;0.50;;;9.30;71.70;;;9.36;62.46;97096.47;5023956;28;20046;-49
2020/12/24 01:15:09;;;;;;;2.03;0.50;;;9.40;71.60;;;9.45;63.19;97120.22;5023416;28;20049;-44
2020/12/24 01:17:38;;;;;;;0.22;0.20;;;9.60;72.50;;;9.52;63.77;97117.75;5023147;28;20052;-46
2020/12/24 01:20:07;;;;;;;1.37;0.40;;;9.60;73.50;;;9.60;63.22;97122.22;5023505;28;20053;-44
2020/12/24 01:22:35;;;;;;;0.87;0.50;;;9.70;72.50;;;9.68;63.41;97135.50;5023725;28;20234;-44
2020/12/24 01:25:03;;;;;;;0.60;0.53;;;9.70;73.20;;;9.77;63.86;97145.13;5023274;28;20277;-46
2020/12/24 01:27:31;;;;;;;0.30;0.30;;;9.80;73.70;;;9.81;63.94;97141.13;5023369;28;20050;-47
2020/12/24 01:29:59;;;;;;;0.20;0.20;;;9.80;74.90;;;9.81;64.45;97156.25;5006486;28;20045;-45
2020/12/24 01:32:26;;;;;;;0.60;0.20;;;9.80;74.80;;;9.85;64.02;97158.41;5023501;28;20045;-46
2020/12/24 01:34:54;;;;;;;0.33;0.20;;;9.80;74.70;;;9.97;64.15;97169.50;5005831;28;20049;-49
2020/12/24 01:37:21;;;;;;;0.50;0.37;;;9.90;75.30;;;9.89;64.96;97192.63;5023446;28;20056;-45
2020/12/24 01:39:48;;;;;;;0.30;0.20;;;9.80;76.20;;;9.94;65.23;97177.81;5023500;28;20056;-46
2020/12/24 01:42:18;;;;;;;0.83;0.40;;;9.80;76.50;;;9.91;65.15;97177.34;5022867;28;20064;-45
2020/12/24 01:44:48;;;;;;;0.83;0.30;;;9.70;77.30;;;9.99;64.99;97191.44;5022916;28;20057;-46
2020/12/24 01:47:16;;;;;;;2.30;0.50;;;9.80;76.90;;;9.95;65.95;97205.25;5023282;28;20050;-44
2020/12/24 01:49:43;;;;;;;1.90;0.40;;;9.70;78.90;;;9.91;66.01;97222.56;5023240;28;20052;-44
2020/12/24 01:52:39;;;;;;;3.30;0.40;;;9.60;79.10;;;9.96;65.46;97229.00;5023251;28;20049;-44
2020/12/24 01:55:10;;;;;;;0.60;0.40;;;9.70;79.70;;;10.00;65.56;97233.00;5005381;28;20053;-44
2020/12/24 01:57:38;;;;;;;1.73;0.53;;;9.70;78.70;;;10.00;65.54;97245.47;5021961;28;20050;-47
2020/12/24 02:00:08;;;;;;;0.60;0.40;;;9.70;78.00;;;10.05;65.55;97222.69;5022099;28;20050;-44
2020/12/24 02:02:39;;;;;;;0.52;0.22;;;9.80;79.20;;;10.09;65.63;97211.72;5022898;28;20052;-44
2020/12/24 02:05:07;;;;;;;0.90;0.40;;;9.90;78.50;;;10.12;65.52;97153.69;5022423;28;20068;-44
2020/12/24 02:07:35;;;;;;;1.20;0.53;;;9.90;77.70;;;10.14;65.44;97146.38;5022930;28;20052;-46
2020/12/24 02:10:03;;;;;;;2.23;0.60;;;10.00;77.80;;;10.13;65.11;97136.72;5022154;28;20046;-44
2020/12/24 02:12:31;;;;;;;1.03;0.43;;;10.00;76.20;;;10.07;64.31;97145.41;5022427;28;20060;-48
2020/12/24 02:14:58;;;;;;;1.77;0.60;;;9.90;75.30;;;10.11;64.74;97137.91;5022117;28;20052;-46
2020/12/24 02:17:26;;;;;;;1.07;0.90;;;10.00;75.80;;;10.09;64.53;97130.09;5022544;28;20238;-45
2020/12/24 02:19:53;;;;;;;0.73;0.50;;;9.90;75.60;;;10.09;64.29;97110.66;5022523;28;20054;-44
2020/12/24 02:22:20;;;;;;;0.93;0.50;;;9.90;75.40;;;10.07;64.06;97124.13;5005123;28;20350;-45
2020/12/24 02:24:48;;;;;;;1.13;0.60;;;9.80;75.00;;;10.05;64.04;97118.13;5021827;28;20052;-44
2020/12/24 02:27:15;;;;;;;2.07;0.60;;;9.80;74.90;;;10.07;64.13;97099.34;5022383;28;20341;-47
2020/12/24 02:29:42;;;;;;;1.20;0.67;;;9.80;74.70;;;10.08;63.81;97074.41;5005140;28;20238;-46
2020/12/24 02:32:10;;;;;;;0.70;0.37;;;9.90;74.60;;;10.09;63.82;97074.25;5021555;28;20046;-47
2020/12/24 02:34:37;;;;;;;1.17;0.50;;;9.90;74.30;;;10.11;63.62;97084.72;5022393;28;20048;-46
2020/12/24 02:37:07;;;;;;;0.87;0.40;;;9.90;73.70;;;10.10;63.18;97078.56;5022135;28;20056;-45
2020/12/24 02:39:35;;;;;;;1.43;0.60;;;9.90;73.00;;;10.10;63.26;97070.59;5022317;28;20046;-43
2020/12/24 02:42:02;;;;;;;2.23;0.50;;;9.80;73.50;;;10.10;62.88;97075.91;5021403;28;20050;-49
2020/12/24 02:44:30;;;;;;;1.30;0.70;;;9.90;72.20;;;10.09;62.16;97082.22;5022286;28;20498;-44
2020/12/24 02:46:57;;;;;;;3.77;1.00;;;9.80;71.80;;;10.07;61.71;97078.91;5021486;28;20056;-45
2020/12/24 02:49:24;;;;;;;1.40;0.50;;;9.80;71.00;;;10.01;61.03;97083.06;5022017;28;20052;-46
2020/12/24 02:51:52;;;;;;;1.17;0.40;;;9.70;70.20;;;10.00;61.19;97056.66;5022140;28;20044;-44
2020/12/24 02:54:19;;;;;;;1.50;0.60;;;9.70;68.60;;;9.98;61.01;97040.88;5021605;28;20361;-44
2020/12/24 02:56:46;;;;;;;0.73;0.30;;;9.70;69.60;;;9.96;60.68;97050.84;5021603;28;20072;-44
2020/12/24 02:59:14;;;;;;;0.30;0.30;;;9.70;69.90;;;9.95;60.73;97059.00;5021976;28;20060;-45
2020/12/24 03:01:41;;;;;;;1.03;0.37;;;9.70;69.50;;;9.97;60.82;97062.31;5004505;28;20054;-44
2020/12/24 03:04:09;;;;;;;1.47;0.83;;;9.70;69.00;;;9.93;60.32;97061.00;5022039;28;20042;-44
2020/12/24 03:06:37;;;;;;;0.47;0.30;;;9.70;69.00;;;9.94;60.53;97073.28;5021618;28;20360;-43
2020/12/24 03:09:05;;;;;;;0.83;0.40;;;9.70;69.80;;;9.92;60.70;97083.28;5021919;28;20037;-45
2020/12/24 03:11:36;;;;;;;0.30;0.30;;;9.70;69.80;;;9.92;60.50;97067.31;5021859;28;20048;-46
2020/12/24 03:14:04;;;;;;;0.50;0.40;;;9.60;69.60;;;9.88;60.90;97069.47;5022045;28;20046;-47
2020/12/24 03:16:31;;;;;;;1.60;0.60;;;9.60;69.90;;;9.87;60.52;97086.47;5020637;28;20050;-45
2020/12/24 03:18:59;;;;;;;0.57;0.40;;;9.60;70.00;;;9.83;60.45;97088.63;5004566;28;20064;-43
2020/12/24 03:21:26;;;;;;;1.10;0.40;;;9.60;69.10;;;9.84;60.69;97058.34;5021899;28;20053;-46
2020/12/24 03:23:53;;;;;;;0.87;0.60;;;9.60;69.80;;;9.83;60.54;97051.41;5021798;28;20346;-45
2020/12/24 03:26:21;;;;;;;2.53;0.70;;;9.60;69.40;;;9.77;60.59;97046.78;5020586;28;20331;-44
2020/12/24 03:28:48;;;;;;;1.63;0.30;;;9.60;69.50;;;9.80;60.84;97040.28;5021770;28;20072;-44
2020/12/24 03:31:23;;;;;;;0.53;0.40;;;9.60;70.00;;;9.79;60.60;97026.16;5003732;28;20053;-46
2020/12/24 03:33:51;;;;;;;0.80;0.50;;;9.60;69.90;;;9.80;61.05;97030.47;5021757;28;20345;-45
2020/12/24 03:36:19;;;;;;;4.30;0.60;;;9.60;69.80;;;9.82;60.81;97030.28;5021209;28;20034;-44
2020/12/24 03:38:46;;;;;;;0.23;0.23;;;9.60;70.70;;;9.80;60.93;97026.97;5021595;28;20057;-43
2020/12/24 03:41:14;;;;;;;0.20;0.13;;;9.60;70.10;;;9.81;61.24;97026.81;5021595;28;20080;-45
2020/12/24 03:43:41;;;;;;;0.50;0.20;;;9.60;70.30;;;9.77;60.79;97022.84;5021577;28;20364;-44
2020/12/24 03:46:09;;;;;;;0.77;0.30;;;9.50;70.10;;;9.77;61.04;97022.00;5019930;28;20053;-47
2020/12/24 03:48:36;;;;;;;0.63;0.30;;;9.50;70.50;;;9.73;61.07;97026.00;5020770;28;20042;-47
2020/12/24 03:51:04;;;;;;;1.53;0.37;;;9.40;70.80;;;9.71;61.07;97025.34;5021513;28;20041;-45
2020/12/24 03:53:31;;;;;;;0.30;0.30;;;9.40;71.10;;;9.68;61.09;97015.06;5021580;28;20056;-48
2020/12/24 03:55:59;;;;;;;0.67;0.40;;;9.40;71.00;;;9.64;61.24;97031.34;5020923;28;20046;-46
2020/12/24 03:58:26;;;;;;;1.83;0.30;;;9.30;71.50;;;9.59;61.22;97020.38;5021434;28;20075;-45
2020/12/24 04:00:53;;;;;;;0.67;0.37;;;9.30;71.30;;;9.56;61.24;97018.09;5021555;28;20060;-49
2020/12/24 04:03:20;;;;;;;0.73;0.50;;;9.20;71.60;;;9.52;61.50;97029.19;5021397;28;20052;-47
2020/12/24 04:05:48;;;;;;;0.63;0.30;;;9.20;71.70;;;9.48;61.60;97042.03;5020878;28;20046;-45
2020/12/24 04:08:15;;;;;;;0.83;0.50;;;9.20;71.90;;;9.48;61.79;97035.84;5021293;28;20050;-47
2020/12/24 04:10:43;;;;;;;1.37;0.30;;;9.20;72.20;;;9.46;61.91;97046.69;5020732;28;20097;-45
2020/12/24 04:13:10;;;;;;;0.83;0.80;;;9.20;72.40;;;9.43;61.94;97031.06;5020409;28;20261;-44
2020/12/24 04:15:38;;;;;;;0.93;0.40;;;9.00;72.70;;;9.40;62.08;97039.34;5019879;28;20053;-45
2020/12/24 04:18:05;;;;;;;2.20;0.93;;;9.10;73.20;;;9.38;62.32;97041.34;5021230;28;20052;-43
2020/12/24 04:20:32;;;;;;;0.30;0.30;;;9.00;73.10;;;9.37;62.34;97034.41;5021249;28;20042;-46
2020/12/24 04:23:00;;;;;;;0.67;0.50;;;9.00;73.30;;;9.34;62.42;97035.53;5021231;28;20064;-44
2020/12/24 04:25:27;;;;;;;0.87;0.40;;;9.00;73.50;;;9.32;62.54;97058.78;5020188;28;20061;-44
2020/12/24 04:27:54;;;;;;;0.60;0.30;;;9.00;73.60;;;9.31;62.61;97037.72;5021204;28;20241;-44
2020/12/24 04:30:22;;;;;;;0.70;0.60;;;9.00;73.80;;;9.28;62.71;97041.53;5020874;28;20042;-46
2020/12/24 04:32:49;;;;;;;2.33;0.43;;;8.90;73.90;;;9.27;62.76;97054.00;5020053;28;20041;-45
2020/12/24 04:35:17;;;;;;;2.30;0.30;;;8.90;73.80;;;9.25;62.73;97045.38;5020716;28;20053;-44
2020/12/24 04:37:44;;;;;;;3.30;0.50;;;8.90;73.70;;;9.25;62.72;97042.72;5022115;28;20038;-44
2020/12/24 04:40:11;;;;;;;0.67;0.43;;;8.90;73.80;;;9.21;62.93;97025.44;5024100;28;20054;-48
2020/12/24 04:42:41;;;;;;;0.33;0.33;;;8.90;73.90;;;9.20;62.91;97021.13;5007135;28;20060;-45
2020/12/24 04:45:08;;;;;;;0.53;0.30;;;8.90;74.10;;;9.17;62.91;97015.31;5024256;28;20234;-49
2020/12/24 04:47:41;;;;;;;0.90;0.70;;;8.80;73.90;;;9.13;62.98;97041.41;5007243;28;20060;-46
2020/12/24 04:50:09;;;;;;;1.37;0.50;;;8.80;73.50;;;9.14;62.72;97031.59;5006548;28;20033;-46
2020/12/24 04:52:37;;;;;;;2.30;0.63;;;8.80;73.70;;;9.11;62.54;97035.44;5006778;28;20042;-46
2020/12/24 04:55:05;;;;;;;1.93;0.40;;;8.90;72.90;;;9.06;62.56;97030.59;5023871;28;20046;-44
2020/12/24 04:57:33;;;;;;;0.90;0.40;;;8.80;71.80;;;9.03;62.21;97027.44;5023074;28;20058;-46
2020/12/24 05:00:02;;;;;;;1.80;0.40;;;8.80;71.30;;;9.04;62.30;97034.44;5004814;28;20242;-46
2020/12/24 05:02:30;;;;;;;1.10;0.40;;;8.80;71.90;;;9.02;61.70;97033.75;5024157;28;20249;-44
2020/12/24 05:04:57;;;;;;;0.50;0.50;;;8.80;70.90;;;8.95;61.78;97041.53;5023777;28;20249;-43
2020/12/24 05:07:24;;;;;;;2.60;0.67;;;8.80;71.10;;;8.89;61.95;97044.88;5023751;28;20064;-45
2020/12/24 05:09:52;;;;;;;1.17;0.43;;;8.80;71.40;;;8.82;62.13;97023.47;5023996;28;20041;-46
2020/12/24 05:12:31;;;;;;;1.53;0.50;;;8.60;71.80;;;8.87;62.17;97033.59;5024033;28;20046;-44
2020/12/24 05:15:00;;;;;;;0.47;0.47;;;8.60;72.60;;;8.90;62.46;97011.19;5023796;28;20052;-46
2020/12/24 05:17:27;;;;;;;1.07;0.63;;;8.60;72.90;;;8.90;62.79;97008.53;5023864;28;20045;-46
2020/12/24 05:20:05;;;;;;;1.63;0.70;;;8.60;73.50;;;8.90;62.89;97011.19;5023978;28;20046;-47
2020/12/24 05:22:33;;;;;;;0.50;0.50;;;8.60;74.20;;;8.91;63.11;97004.88;5023814;28;20229;-44
2020/12/24 05:25:11;;;;;;;0.93;0.30;;;8.60;74.00;;;8.92;63.24;97017.16;5023353;28;20054;-45
2020/12/24 05:27:39;;;;;;;0.80;0.60;;;8.60;74.20;;;8.90;63.06;97009.38;5023754;28;20049;-47
2020/12/24 05:30:18;;;;;;;0.40;0.30;;;8.60;74.00;;;8.88;63.10;97006.06;5023571;28;20215;-43
2020/12/24 05:32:46;;;;;;;2.07;1.43;;;8.60;73.80;;;8.89;62.99;97013.00;5001615;28;20042;-45
2020/12/24 05:35:14;;;;;;;1.90;0.50;;;8.60;73.80;;;8.91;63.16;96997.75;5018496;28;20054;-44
2020/12/24 05:37:41;;;;;;;1.40;0.50;;;8.60;73.90;;;8.93;63.04;97005.56;5003956;28;20046;-47
2020/12/24 05:40:22;;;;;;;1.70;0.60;;;8.60;73.80;;;8.93;62.96;97005.56;5003812;28;20054;-48
2020/12/24 05:43:01;;;;;;;0.97;0.47;;;8.60;73.70;;;8.89;63.06;97010.34;5003706;28;20245;-46
2020/12/24 05:45:32;;;;;;;0.90;0.60;;;8.60;73.60;;;8.88;63.13;96992.78;5003407;28;20049;-47
2020/12/24 05:48:11;;;;;;;1.97;1.27;;;8.60;73.50;;;8.87;63.21;97002.56;5003790;28;20046;-46
2020/12/24 05:50:41;;;;;;;1.33;0.30;;;8.60;73.50;;;8.86;62.85;97000.09;5003032;28;20046;-44
2020/12/24 05:53:14;;;;;;;0.83;0.43;;;8.50;73.40;;;8.86;62.81;96997.44;5003847;28;20071;-46
2020/12/24 05:55:42;;;;;;;0.93;0.50;;;8.50;73.20;;;8.84;62.78;97004.72;5003170;28;20046;-45
2020/12/24 05:58:11;;;;;;;2.00;0.60;;;8.50;73.40;;;8.82;62.94;96994.28;5003654;28;20242;-45
2020/12/24 06:00:42;;;;;;;1.53;0.60;;;8.50;73.50;;;8.81;63.00;96991.78;4998950;28;20064;-45
2020/12/24 06:03:16;;;;;;;0.80;0.57;;;8.50;73.60;;;8.80;63.35;96979.50;5003754;28;20247;-45
2020/12/24 06:06:05;;;;;;;2.87;1.03;;;8.50;73.70;;;8.84;63.34;96986.97;5003061;28;20414;-45
2020/12/24 06:08:34;;;;;;;1.70;0.80;;;8.60;73.90;;;8.86;63.25;96977.03;5003492;28;20050;-43
2020/12/24 06:11:13;;;;;;;0.50;0.50;;;8.60;73.70;;;8.88;63.54;96966.25;5003049;28;20227;-45
2020/12/24 06:13:48;;;;;;;2.40;0.67;;;8.60;73.70;;;8.92;63.45;96967.56;5003483;28;20415;-46
2020/12/24 06:16:16;;;;;;;1.07;0.73;;;8.70;73.80;;;8.93;63.23;96955.13;5003229;28;20058;-44
2020/12/24 06:18:46;;;;;;;1.17;0.47;;;8.70;73.80;;;8.96;63.39;96960.91;5002839;28;20068;-45
2020/12/24 06:21:18;;;;;;;1.33;0.83;;;8.70;73.60;;;8.99;63.70;96957.09;5003067;28;20060;-44
2020/12/24 06:23:58;;;;;;;1.43;0.90;;;8.80;73.30;;;9.00;63.38;96951.63;5003119;28;20050;-45
2020/12/24 06:26:45;;;;;;;3.10;0.80;;;8.80;73.30;;;9.02;63.25;96943.50;5017270;28;20050;-44
2020/12/24 06:29:18;;;;;;;2.60;1.37;;;8.80;72.90;;;9.01;63.35;96942.63;5017410;28;20258;-45
2020/12/24 06:31:49;;;;;;;1.20;0.67;;;8.80;73.30;;;9.02;63.30;96940.84;5016880;28;20057;-44
2020/12/24 06:34:28;;;;;;;1.67;0.37;;;8.80;73.00;;;9.01;63.00;96931.19;5017861;28;20046;-45
2020/12/24 06:37:11;;;;;;;1.67;0.60;;;8.70;72.90;;;8.99;63.11;96923.41;5002379;28;20048;-45
2020/12/24 06:39:50;;;;;;;0.80;0.50;;;8.70;73.10;;;8.98;62.96;96928.91;5015906;28;20056;-45
2020/12/24 06:42:36;;;;;;;3.40;0.80;;;8.70;72.90;;;8.98;63.04;96923.59;5016627;28;20065;-47
2020/12/24 06:45:20;;;;;;;3.13;0.77;;;8.70;72.80;;;8.96;62.89;96923.75;5002254;28;20078;-47
2020/12/24 06:48:15;;;;;;;1.02;0.70;;;8.70;72.70;;;8.95;62.67;96919.44;5002771;28;20269;-43
2020/12/24 06:50:48;;;;;;;2.77;0.60;;;8.70;71.90;;;8.97;62.94;96919.25;5002430;28;20053;-45
2020/12/24 06:53:33;;;;;;;1.87;0.77;;;8.70;72.60;;;8.95;62.67;96919.44;5002114;28;20062;-45
2020/12/24 06:56:09;;;;;;;2.23;1.20;;;8.70;72.00;;;8.99;62.93;96918.09;5001969;28;20050;-44
2020/12/24 06:58:44;;;;;;;2.53;0.80;;;8.80;72.30;;;8.97;62.36;96925.41;5001365;28;20249;-47
2020/12/24 07:01:21;;;;;;;4.93;0.80;;;8.70;71.90;;;8.91;62.36;96918.09;5000793;28;20069;-44
2020/12/24 07:03:50;;;;;;;1.20;0.80;;;8.70;71.90;;;8.93;62.39;96912.63;5001974;28;20356;-44
2020/12/24 07:06:40;;;;;;;0.63;0.40;;;8.70;72.30;;;8.97;62.63;96922.75;5001843;28;20372;-49
2020/12/24 07:09:09;;;;;;;3.20;0.73;;;8.80;72.20;;;8.92;62.71;96924.25;5002296;28;20054;-44
2020/12/24 07:11:52;;;;;;;1.90;0.93;;;8.70;71.90;;;8.92;62.42;96925.09;5002214;28;20052;-43
2020/12/24 07:14:37;;;;;;;6.67;1.17;;;8.70;71.80;;;8.95;62.75;96918.59;5017191;28;20053;-45
2020/12/24 07:17:18;;;;;;;3.80;1.87;;;8.70;72.10;;;8.98;62.60;96920.94;5001015;28;20156;-47
2020/12/24 07:19:49;;;;;;;2.20;0.83;;;8.80;72.40;;;8.97;62.39;96912.13;5000881;28;20341;-46
2020/12/24 07:22:19;;;;;;;4.57;1.10;;;8.70;72.20;;;8.98;62.94;96908.47;5017108;28;20056;-44
2020/12/24 07:24:55;;;;;;;1.43;0.70;;;8.80;72.50;;;8.97;62.88;96903.34;5001631;28;20050;-42
2020/12/24 07:27:23;;;;;;;2.60;0.77;;;8.70;72.40;;;8.97;62.55;96901.50;5015112;28;20056;-43
2020/12/24 07:29:51;;;;;;;3.23;0.63;;;8.80;72.00;;;8.99;62.47;96901.34;5016700;28;20398;-43
2020/12/24 07:32:20;;;;;;;1.03;0.70;;;8.80;71.50;;;8.99;62.47;96899.50;5000561;28;20046;-44
2020/12/24 07:34:47;;;;;;;5.30;0.80;;;8.80;71.40;;;9.04;62.39;96912.28;5001660;28;20242;-42
2020/12/24 07:37:15;;;;;;;1.10;0.70;;;8.80;71.70;;;9.05;62.21;96908.63;5002098;28;20058;-42
2020/12/24 07:39:53;;;;;;;2.03;1.27;;;8.90;71.40;;;9.05;62.09;96901.50;5016952;28;20046;-45
2020/12/24 07:42:24;;;;;;;1.57;0.73;;;8.90;70.30;;;9.06;62.08;96913.78;4982126;28;20057;-43
2020/12/24 07:44:53;;;;;;;4.50;1.10;;;8.90;70.80;;;9.07;62.08;96915.44;4982249;28;20042;-44
2020/12/24 07:47:20;;;;;;;2.40;1.00;;;8.90;71.20;;;9.11;62.09;96909.78;4982361;28;20047;-45
2020/12/24 07:49:52;;;;;;;2.67;1.20;;;8.90;71.10;;;9.13;61.81;96916.59;4981848;28;20043;-45
2020/12/24 07:52:20;;;;;;;3.00;0.73;;;9.00;70.40;;;9.12;61.63;96906.13;4982277;28;20073;-43
2020/12/24 07:54:53;;;;;;;2.80;1.17;;;8.90;70.30;;;9.12;61.99;96906.13;4982064;28;20058;-44
2020/12/24 07:57:22;;;;;;;2.97;1.10;;;9.00;70.40;;;9.11;61.61;96912.44;4996652;28;20042;-42
2020/12/24 07:59:59;;;;;;;3.77;1.20;;;9.00;69.40;;;9.06;60.66;96916.41;4980912;28;20043;-43
2020/12/24 08:02:26;;;;;;;1.70;0.83;;;8.90;67.80;;;9.05;60.99;96909.47;4981024;28;20048;-44
2020/12/24 08:04:54;;;;;;;3.57;0.83;;;8.90;69.00;;;9.05;60.14;96913.94;4981893;28;20054;-45
2020/12/24 08:07:24;;;;;;;5.07;1.10;;;8.90;68.20;;;9.03;60.67;96911.47;4981769;28;20050;-45
2020/12/24 08:09:51;;;;;;;5.80;2.43;;;8.90;68.60;;;8.89;59.29;96912.16;4982224;28;20047;-45
2020/12/24 08:12:23;;;;;;;6.70;2.53;;;8.80;67.20;;;8.87;60.00;96909.66;4982695;28;20269;-45
2020/12/24 08:14:51;;;;;;;5.50;2.73;;;8.70;68.00;;;8.90;60.41;96897.03;5000614;28;20049;-42
2020/12/24 08:17:35;;;;;;;6.87;2.73;;;8.70;68.60;;;8.90;59.97;96892.56;4985911;28;20346;-50
2020/12/24 08:20:09;;;;;;;7.17;2.07;;;8.70;68.50;;;8.85;59.74;96892.25;4985932;28;20051;-45
2020/12/24 08:22:59;;;;;;;5.17;1.90;;;8.60;67.70;;;8.86;60.21;96905.34;4985916;28;20057;-45
2020/12/24 08:25:28;;;;;;;7.73;3.03;;;8.60;68.30;;;8.82;59.99;96908.50;4999428;28;20047;-42
2020/12/24 08:27:57;;;;;;;4.87;2.03;;;8.60;67.60;;;8.85;60.34;96905.50;4985694;28;20057;-42
2020/12/24 08:30:37;;;;;;;3.70;1.70;;;8.60;68.80;;;8.86;60.07;96904.53;4985561;28;20039;-44
2020/12/24 08:33:05;;;;;;;4.67;2.07;;;8.70;68.60;;;8.86;59.47;96909.84;5014043;28;20258;-44
2020/12/24 08:35:34;;;;;;;4.23;1.80;;;8.70;67.00;;;8.83;59.89;96907.50;5003288;28;20046;-46
2020/12/24 08:38:15;;;;;;;1.70;0.90;;;8.60;68.10;;;8.80;60.35;96915.78;5005326;28;20211;-44
2020/12/24 08:40:43;;;;;;;1.80;1.20;;;8.70;68.10;;;8.84;60.42;96909.16;5005293;28;20054;-43
2020/12/24 08:43:13;;;;;;;2.60;1.27;;;8.70;68.20;;;8.91;60.36;96909.31;5020268;28;20054;-43
2020/12/24 08:45:52;;;;;;;6.47;3.10;;;8.80;68.20;;;8.87;59.09;96906.16;5019347;28;20068;-44
2020/12/24 08:48:38;;;;;;;3.53;1.97;;;8.80;67.00;;;8.79;59.66;96908.84;5005099;28;20056;-42
2020/12/24 08:51:19;;;;;;;3.93;1.30;;;8.60;67.20;;;8.80;59.80;96910.50;5003591;28;20057;-43
2020/12/24 08:54:07;;;;;;;2.80;1.60;;;8.70;67.50;;;8.83;60.12;96910.16;5003746;28;20042;-45
2020/12/24 08:56:38;;;;;;;2.70;1.30;;;8.70;67.90;;;8.79;59.49;96909.66;4990241;28;20050;-45
2020/12/24 08:59:13;;;;;;;3.10;1.53;;;8.60;67.20;;;8.72;59.55;96916.63;4985432;28;20238;-43
2020/12/24 09:01:44;;;;;;;1.50;0.90;;;8.60;67.60;;;8.64;59.74;96914.81;4983459;28;20054;-42
2020/12/24 09:04:15;;;;;;;2.17;0.63;;;8.50;67.80;;;8.65;59.95;96911.19;4985350;28;20065;-43
2020/12/24 09:06:45;;;;;;;1.43;0.70;;;8.50;68.00;;;8.69;59.74;96922.28;4985157;28;20057;-44
2020/12/24 09:09:23;;;;;;;1.17;0.63;;;8.60;67.80;;;8.69;60.11;96918.81;4985116;28;20051;-47
2020/12/24 09:11:54;;;;;;;1.87;0.80;;;8.60;67.70;;;8.69;59.75;96930.25;4999241;28;20043;-43
2020/12/24 09:14:23;;;;;;;1.63;1.33;;;8.60;67.30;;;8.72;59.61;96929.06;4985154;28;20042;-46
2020/12/24 09:17:04;;;;;;;3.13;1.00;;;8.60;67.50;;;8.74;59.72;96930.56;4984627;28;20095;-46
2020/12/24 09:19:31;;;;;;;1.43;0.60;;;8.70;67.20;;;8.76;59.52;96943.66;4985028;28;20049;-44
2020/12/24 09:21:59;;;;;;;1.10;0.77;;;8.60;67.10;;;8.74;59.83;96938.53;4984841;28;20058;-44
2020/12/24 09:24:27;;;;;;;3.30;1.10;;;8.60;68.00;;;8.77;59.57;96948.81;4984067;28;20237;-45
2020/12/24 09:26:56;;;;;;;2.20;1.20;;;8.60;67.70;;;8.79;59.47;96938.84;4984754;28;20071;-44
2020/12/24 09:29:27;;;;;;;1.53;0.70;;;8.60;67.40;;;8.74;59.26;96932.41;4985223;28;20061;-44
2020/12/24 09:32:00;;;;;;;1.33;0.67;;;8.60;67.60;;;8.67;59.60;96938.38;4984485;28;20049;-46
2020/12/24 09:34:29;;;;;;;2.00;1.13;;;8.50;67.70;;;8.72;59.73;96945.81;4984130;28;20049;-46
2020/12/24 09:36:57;;;;;;;1.90;1.13;;;8.60;68.00;;;8.77;59.60;96943.50;4983712;28;20051;-51
2020/12/24 09:39:24;;;;;;;1.13;0.90;;;8.60;67.20;;;8.72;59.18;96940.53;4984810;28;20050;-43
2020/12/24 09:41:51;;;;;;;2.47;1.57;;;8.60;67.80;;;8.73;59.66;96942.19;4984688;28;20055;-46
2020/12/24 09:44:19;;;;;;;2.20;1.10;;;8.60;67.40;;;8.77;59.59;96948.81;4984469;28;20053;-44
2020/12/24 09:46:48;;;;;;;2.30;1.30;;;8.70;67.20;;;8.72;59.35;96951.13;4982908;28;20057;-45
2020/12/24 09:49:17;;;;;;;1.33;0.63;;;8.60;67.50;;;8.77;59.95;96943.50;4984419;28;20054;-44
2020/12/24 09:51:47;;;;;;;1.30;0.70;;;8.70;68.00;;;8.69;60.01;96955.97;4984361;28;20042;-47
2020/12/24 09:54:29;;;;;;;2.08;1.25;;;8.60;68.20;;;8.69;59.99;96958.63;4984632;28;20050;-44
2020/12/24 09:56:57;;;;;;;1.97;0.80;;;8.60;68.30;;;8.73;60.12;96952.81;4983740;28;20341;-44
2020/12/24 09:59:25;;;;;;;2.63;1.27;;;8.60;68.50;;;8.79;60.13;96957.44;4984284;28;20042;-44
2020/12/24 10:01:54;;;;;;;2.20;1.00;;;8.70;68.50;;;8.82;60.17;96961.56;4983313;28;20055;-45
2020/12/24 10:04:21;;;;;;;2.43;1.20;;;8.80;68.20;;;8.87;59.80;96956.59;4984170;28;20050;-48
2020/12/24 10:06:49;;;;;;;1.70;0.83;;;8.80;67.60;;;8.92;59.89;96966.72;4983742;28;20219;-45
2020/12/24 10:09:17;;;;;;;2.30;1.50;;;8.90;67.80;;;8.99;60.00;96952.59;4984117;28;20376;-47
2020/12/24 10:11:47;;;;;;;1.83;0.80;;;9.00;68.10;;;9.06;60.18;96948.28;4984041;28;20047;-47
2020/12/24 10:14:15;;;;;;;1.37;1.00;;;9.10;67.80;;;9.10;60.15;96943.47;4984112;28;20057;-44
2020/12/24 10:16:43;;;;;;;3.10;1.20;;;9.20;67.90;;;9.14;60.14;96936.81;4998268;28;20061;-43
2020/12/24 10:19:11;;;;;;;3.00;1.20;;;9.10;68.10;;;9.11;59.86;96945.13;4983940;28;20047;-43
2020/12/24 10:21:40;;;;;;;0.90;0.57;;;9.10;67.80;;;9.11;59.17;96936.31;4983780;28;20050;-46
2020/12/24 10:24:16;;;;;;;1.70;0.70;;;9.10;67.10;;;9.16;59.97;96934.00;4983831;28;20050;-44
2020/12/24 10:26:43;;;;;;;1.57;1.10;;;9.10;68.20;;;9.18;59.71;96938.13;4983446;28;20055;-44
2020/12/24 10:29:11;;;;;;;1.30;0.70;;;9.10;67.60;;;9.19;59.59;96933.66;4983714;28;20223;-44
2020/12/24 10:31:43;;;;;;;1.63;0.57;;;9.10;67.50;;;9.05;58.89;96937.81;4983417;28;20043;-44
2020/12/24 10:34:10;;;;;;;1.70;0.90;;;9.00;66.50;;;9.04;59.37;96931.69;4983553;28;20050;-44
2020/12/24 10:36:39;;;;;;;1.07;0.70;;;8.90;67.80;;;8.88;59.28;96923.78;4982769;28;20051;-46
2020/12/24 10:39:09;;;;;;;0.80;0.50;;;8.80;67.10;;;8.93;59.49;96929.38;4998486;28;20046;-45
2020/12/24 10:41:39;;;;;;;0.60;0.60;;;8.70;67.80;;;8.90;59.20;96924.44;4983333;28;20057;-44
2020/12/24 10:44:08;;;;;;;0.80;0.50;;;8.70;67.40;;;8.87;59.41;96916.78;4983449;28;20057;-44